createdAt,value
2023-01-11T00:00:45.050Z,0.95
2023-01-11T00:03:12.041Z,0.95
2023-01-11T00:05:40.081Z,0.80
2023-01-11T00:08:08.013Z,0.90
2023-01-11T00:10:34.631Z,0.70
2023-01-11T00:13:01.732Z,0.85
2023-01-11T00:15:28.290Z,0.60
2023-01-11T00:17:55.096Z,0.68
2023-01-11T00:20:21.578Z,0.80
2023-01-11T00:22:48.100Z,0.95
2023-01-11T00:25:14.681Z,1.00
2023-01-11T00:27:41.178Z,0.80
2023-01-11T00:30:08.375Z,1.20
2023-01-11T00:32:34.836Z,1.48
2023-01-11T00:35:01.329Z,1.40
2023-01-11T00:37:27.798Z,1.63
2023-01-11T00:39:54.227Z,1.50
2023-01-11T00:42:39.281Z,1.90
2023-01-11T00:45:25.123Z,1.33
2023-01-11T00:47:57.337Z,1.60
2023-01-11T00:50:25.186Z,1.48
2023-01-11T00:52:51.671Z,1.40
2023-01-11T00:55:19.175Z,1.13
2023-01-11T00:57:45.721Z,1.20
2023-01-11T01:00:13.098Z,1.30
2023-01-11T01:02:40.010Z,1.67
2023-01-11T01:05:06.879Z,1.60
2023-01-11T01:07:33.386Z,1.50
2023-01-11T01:09:59.855Z,1.50
2023-01-11T01:12:45.208Z,0.88
2023-01-11T01:15:11.869Z,1.02
2023-01-11T01:17:38.421Z,1.30
2023-01-11T01:20:05.482Z,0.90
2023-01-11T01:22:31.996Z,1.50
2023-01-11T01:24:58.430Z,1.23
2023-01-11T01:27:25.148Z,1.27
2023-01-11T01:29:51.597Z,1.35
2023-01-11T01:32:18.082Z,1.00
2023-01-11T01:34:44.514Z,0.98
2023-01-11T01:37:11.925Z,1.10
2023-01-11T01:39:38.611Z,1.00
2023-01-11T01:42:06.149Z,0.95
2023-01-11T01:44:59.418Z,1.20
2023-01-11T01:47:41.995Z,0.98
2023-01-11T01:50:22.938Z,1.00
2023-01-11T01:52:53.256Z,1.15
2023-01-11T01:55:26.765Z,0.73
2023-01-11T01:57:54.577Z,0.80
2023-01-11T02:00:21.256Z,0.90
2023-01-11T02:02:49.167Z,0.82
2023-01-11T02:05:17.446Z,1.00
2023-01-11T02:07:46.008Z,0.80
2023-01-11T02:10:18.703Z,1.00
2023-01-11T02:13:08.881Z,1.00
2023-01-11T02:15:36.700Z,1.30
2023-01-11T02:18:03.424Z,0.90
2023-01-11T02:20:42.177Z,0.90
2023-01-11T02:23:26.945Z,0.63
2023-01-11T02:26:21.273Z,0.70
2023-01-11T02:29:00.444Z,0.80
2023-01-11T02:31:56.112Z,0.70
2023-01-11T02:34:31.644Z,1.00
2023-01-11T02:37:04.671Z,0.85
2023-01-11T02:39:49.683Z,0.90
2023-01-11T02:42:47.043Z,0.90
2023-01-11T02:45:35.206Z,0.80
2023-01-11T02:48:24.472Z,1.23
2023-01-11T02:51:08.373Z,1.00
2023-01-11T02:53:48.598Z,0.98
2023-01-11T02:56:24.633Z,0.85
2023-01-11T02:58:53.425Z,1.10
2023-01-11T03:01:22.591Z,0.75
2023-01-11T03:03:50.563Z,0.70
2023-01-11T03:06:18.910Z,0.60
2023-01-11T03:08:57.411Z,0.70
2023-01-11T03:12:11.811Z,0.60
2023-01-11T03:14:56.393Z,0.60
2023-01-11T03:17:56.984Z,1.00
2023-01-11T03:20:29.473Z,0.85
2023-01-11T03:23:12.552Z,0.85
2023-01-11T03:25:52.446Z,1.00
2023-01-11T03:29:08.229Z,0.75
2023-01-11T03:31:40.273Z,0.60
2023-01-11T03:34:13.471Z,0.70
2023-01-11T03:36:49.280Z,0.80
2023-01-11T03:39:37.054Z,0.63
2023-01-11T03:42:07.983Z,0.70
2023-01-11T03:44:46.532Z,0.70
2023-01-11T03:47:17.034Z,0.60
2023-01-11T03:49:49.101Z,0.63
2023-01-11T03:52:21.496Z,0.75
2023-01-11T03:54:49.098Z,0.70
2023-01-11T03:57:31.926Z,0.63
2023-01-11T03:59:58.584Z,0.60
2023-01-11T04:02:27.370Z,0.85
2023-01-11T04:04:54.364Z,0.90
2023-01-11T04:07:20.851Z,0.90
2023-01-11T04:09:47.354Z,0.82
2023-01-11T04:12:13.800Z,1.20
2023-01-11T04:14:40.291Z,1.02
2023-01-11T04:17:06.736Z,1.48
2023-01-11T04:19:33.183Z,1.50
2023-01-11T04:21:59.674Z,1.98
2023-01-11T04:24:26.154Z,1.95
2023-01-11T04:26:52.606Z,2.90
2023-01-11T04:29:19.059Z,2.72
2023-01-11T04:31:48.409Z,2.75
2023-01-11T04:34:16.956Z,2.80
2023-01-11T04:36:43.512Z,2.92
2023-01-11T04:39:13.350Z,3.30
2023-01-11T04:41:58.357Z,2.45
2023-01-11T04:44:24.961Z,2.17
2023-01-11T04:46:51.436Z,2.85
2023-01-11T04:49:18.028Z,2.22
2023-01-11T04:51:44.470Z,2.35
2023-01-11T04:54:11.325Z,1.88
2023-01-11T04:56:37.893Z,2.33
2023-01-11T04:59:04.387Z,3.50
2023-01-11T05:01:31.069Z,1.48
2023-01-11T05:03:57.585Z,2.00
2023-01-11T05:06:24.189Z,1.83
2023-01-11T05:08:50.659Z,1.40
2023-01-11T05:11:17.830Z,1.65
2023-01-11T05:13:45.063Z,1.40
2023-01-11T05:16:17.723Z,1.10
2023-01-11T05:18:49.106Z,1.45
2023-01-11T05:21:18.210Z,0.90
2023-01-11T05:23:45.069Z,0.90
2023-01-11T05:26:14.868Z,1.05
2023-01-11T05:28:41.289Z,1.40
2023-01-11T05:31:07.771Z,1.00
2023-01-11T05:33:34.510Z,1.20
2023-01-11T05:36:03.425Z,1.20
2023-01-11T05:38:30.271Z,1.10
2023-01-11T05:41:08.122Z,1.00
2023-01-11T05:43:55.613Z,1.15
2023-01-11T05:46:22.782Z,0.80
2023-01-11T05:48:49.437Z,0.60
2023-01-11T05:51:16.516Z,0.90
2023-01-11T05:53:43.365Z,0.60
2023-01-11T05:56:09.860Z,0.70
2023-01-11T05:58:36.320Z,0.60
2023-01-11T06:01:02.874Z,0.50
2023-01-11T06:03:29.352Z,0.60
2023-01-11T06:05:55.871Z,0.68
2023-01-11T06:08:22.349Z,0.57
2023-01-11T06:10:56.612Z,0.50
2023-01-11T06:13:27.913Z,1.05
2023-01-11T06:15:54.985Z,0.68
2023-01-11T06:18:21.541Z,0.40
2023-01-11T06:20:52.532Z,0.47
2023-01-11T06:23:19.811Z,0.50
2023-01-11T06:25:46.554Z,0.50
2023-01-11T06:28:13.727Z,0.50
2023-01-11T06:30:40.742Z,0.40
2023-01-11T06:33:07.477Z,0.47
2023-01-11T06:35:41.596Z,0.50
2023-01-11T06:38:11.316Z,0.80
2023-01-11T06:40:39.752Z,0.50
2023-01-11T06:43:07.451Z,0.68
2023-01-11T06:45:33.993Z,0.40
2023-01-11T06:48:00.991Z,0.50
2023-01-11T06:50:27.473Z,0.30
2023-01-11T06:52:58.458Z,0.57
2023-01-11T06:55:27.123Z,0.40
2023-01-11T06:57:53.950Z,0.40
2023-01-11T07:00:21.209Z,0.50
2023-01-11T07:02:48.526Z,0.60
2023-01-11T07:05:18.161Z,1.17
2023-01-11T07:07:45.637Z,0.40
2023-01-11T07:10:15.437Z,0.50
2023-01-11T07:12:42.205Z,0.60
2023-01-11T07:15:10.102Z,0.40
2023-01-11T07:17:36.727Z,0.60
2023-01-11T07:20:04.741Z,0.52
2023-01-11T07:22:34.283Z,0.40
2023-01-11T07:25:01.077Z,0.40
2023-01-11T07:27:27.619Z,0.68
2023-01-11T07:29:54.148Z,0.40
2023-01-11T07:32:20.682Z,0.80
2023-01-11T07:34:47.157Z,0.50
2023-01-11T07:37:28.242Z,0.50
2023-01-11T07:39:55.669Z,0.60
2023-01-11T07:42:40.878Z,0.60
2023-01-11T07:45:08.263Z,0.60
2023-01-11T07:47:35.098Z,0.55
2023-01-11T07:50:01.568Z,0.60
2023-01-11T07:52:28.052Z,0.45
2023-01-11T07:54:54.520Z,0.80
2023-01-11T07:57:21.066Z,0.70
2023-01-11T07:59:47.562Z,0.70
2023-01-11T08:02:14.198Z,0.90
2023-01-11T08:04:40.675Z,0.90
2023-01-11T08:07:07.188Z,0.93
2023-01-11T08:09:33.659Z,0.80
2023-01-11T08:12:18.719Z,0.90
2023-01-11T08:14:45.374Z,0.90
2023-01-11T08:17:14.249Z,0.95
2023-01-11T08:19:41.292Z,1.08
2023-01-11T08:22:07.809Z,1.00
2023-01-11T08:24:37.169Z,1.20
2023-01-11T08:27:04.655Z,1.25
2023-01-11T08:29:31.823Z,1.50
2023-01-11T08:31:59.448Z,1.23
2023-01-11T08:34:28.901Z,1.60
2023-01-11T08:36:57.459Z,1.50
2023-01-11T08:39:24.951Z,1.80
2023-01-11T08:41:51.467Z,1.13
2023-01-11T08:44:29.136Z,1.48
2023-01-11T08:46:59.780Z,2.20
2023-01-11T08:49:26.326Z,4.22
2023-01-11T08:51:52.863Z,3.22
2023-01-11T08:54:19.380Z,4.90
2023-01-11T08:56:45.858Z,5.95
2023-01-11T08:59:12.536Z,7.88
2023-01-11T09:01:39.224Z,6.90
2023-01-11T09:04:19.206Z,3.80
2023-01-11T09:06:49.844Z,3.63
2023-01-11T09:09:16.951Z,3.63
2023-01-11T09:11:56.707Z,2.67
2023-01-11T09:14:25.865Z,2.85
2023-01-11T09:16:55.908Z,1.98
2023-01-11T09:19:22.954Z,2.53
2023-01-11T09:21:51.085Z,2.78
2023-01-11T09:24:17.584Z,2.83
2023-01-11T09:26:44.098Z,3.05
2023-01-11T09:29:11.638Z,7.85
2023-01-11T09:31:38.519Z,6.45
2023-01-11T09:34:06.844Z,8.13
2023-01-11T09:36:35.801Z,8.68
2023-01-11T09:39:06.304Z,4.53
2023-01-11T09:42:00.789Z,3.88
2023-01-11T09:44:29.757Z,4.43
2023-01-11T09:47:15.572Z,3.65
2023-01-11T09:49:47.105Z,6.80
2023-01-11T09:52:28.959Z,6.60
2023-01-11T09:54:58.401Z,5.88
2023-01-11T09:57:26.547Z,5.13
2023-01-11T10:00:22.454Z,6.05
2023-01-11T10:03:19.767Z,7.75
2023-01-11T10:06:04.121Z,5.57
2023-01-11T10:18:29.210Z,3.10
2023-01-11T10:18:38.533Z,4.60
2023-01-11T10:21:18.044Z,8.10
2023-01-11T10:24:06.823Z,7.30
2023-01-11T10:26:39.991Z,5.50
2023-01-11T10:29:21.513Z,3.15
2023-01-11T10:32:21.992Z,2.75
2023-01-11T10:35:14.272Z,2.88
2023-01-11T10:41:25.228Z,3.08
2023-01-11T10:44:08.472Z,2.38
2023-01-11T10:46:44.487Z,3.25
2023-01-11T10:49:46.733Z,3.25
2023-01-11T10:52:34.912Z,2.20
2023-01-11T10:55:23.174Z,3.40
2023-01-11T10:58:11.442Z,2.83
2023-01-11T11:00:58.598Z,3.17
2023-01-11T11:03:28.474Z,2.80
2023-01-11T11:06:13.613Z,2.50
2023-01-11T11:08:46.381Z,3.25
2023-01-11T11:11:21.738Z,3.00
2023-01-11T11:14:16.154Z,2.42
2023-01-11T11:17:20.908Z,3.47
2023-01-11T11:19:47.601Z,3.55
2023-01-11T11:22:14.159Z,3.40
2023-01-11T11:24:53.401Z,3.83
2023-01-11T11:27:26.693Z,3.15
2023-01-11T11:29:55.632Z,4.30
2023-01-11T11:32:36.424Z,5.03
2023-01-11T11:35:04.200Z,4.18
2023-01-11T11:37:41.577Z,3.30
2023-01-11T11:40:35.435Z,3.83
2023-01-11T11:43:11.000Z,4.30
2023-01-11T11:45:50.706Z,2.75
2023-01-11T11:48:17.207Z,2.78
2023-01-11T11:50:45.641Z,2.67
2023-01-11T11:53:25.408Z,2.90
2023-01-11T11:55:53.185Z,4.20
2023-01-11T11:58:23.951Z,2.92
2023-01-11T12:00:52.545Z,2.58
2023-01-11T12:03:29.055Z,2.75
2023-01-11T12:06:01.114Z,2.95
2023-01-11T12:08:29.736Z,2.67
2023-01-11T12:10:59.797Z,2.08
2023-01-11T12:13:57.882Z,3.03
2023-01-11T12:16:31.445Z,2.70
2023-01-11T12:18:57.999Z,2.10
2023-01-11T12:21:27.050Z,2.67
2023-01-11T12:24:18.989Z,2.60
2023-01-11T12:26:57.671Z,2.22
2023-01-11T12:29:46.532Z,2.33
2023-01-11T12:32:28.533Z,3.67
2023-01-11T12:35:04.110Z,2.15
2023-01-11T12:37:54.712Z,2.33
2023-01-11T12:40:24.261Z,2.47
2023-01-11T12:43:08.934Z,2.28
2023-01-11T12:46:05.249Z,2.17
2023-01-11T12:48:49.735Z,2.10
2023-01-11T12:51:40.744Z,2.53
2023-01-11T12:54:16.084Z,3.50
2023-01-11T12:57:13.851Z,2.10
2023-01-11T13:00:37.441Z,1.70
2023-01-11T13:03:29.445Z,2.15
2023-01-11T13:06:12.222Z,2.30
2023-01-11T13:08:41.612Z,1.85
2023-01-11T13:11:35.993Z,2.75
2023-01-11T13:14:30.438Z,2.17
2023-01-11T13:17:17.121Z,1.88
2023-01-11T13:19:49.812Z,2.10
2023-01-11T13:22:20.441Z,2.28
2023-01-11T13:24:50.594Z,2.03
2023-01-11T13:27:23.232Z,1.88
2023-01-11T13:29:56.093Z,2.42
2023-01-11T13:32:26.873Z,2.05
2023-01-11T13:35:08.540Z,2.20
2023-01-11T13:38:07.310Z,1.85
2023-01-11T13:40:43.331Z,2.70
2023-01-11T13:43:19.656Z,1.80
2023-01-11T13:45:59.600Z,1.60
2023-01-11T13:48:41.396Z,1.92
2023-01-11T13:51:25.822Z,2.08
2023-01-11T13:54:10.014Z,2.08
2023-01-11T13:56:41.995Z,2.00
2023-01-11T14:01:59.050Z,2.17
2023-01-11T14:04:40.787Z,2.70
2023-01-11T14:07:52.027Z,1.38
2023-01-11T14:10:55.189Z,1.77
2023-01-11T14:13:58.673Z,1.73
2023-01-11T14:16:49.729Z,2.05
2023-01-11T14:19:44.696Z,2.38
2023-01-11T14:22:28.679Z,2.95
2023-01-11T14:24:58.135Z,2.20
2023-01-11T14:27:49.861Z,2.00
2023-01-11T14:30:55.313Z,1.65
2023-01-11T14:33:54.845Z,1.75
2023-01-11T14:36:49.236Z,2.42
2023-01-11T14:39:27.541Z,2.05
2023-01-11T14:42:33.639Z,1.95
2023-01-11T14:45:33.554Z,1.50
2023-01-11T14:48:11.934Z,1.75
2023-01-11T14:51:05.645Z,2.65
2023-01-11T14:53:40.457Z,2.28
2023-01-11T14:56:37.137Z,2.15
2023-01-11T14:59:07.378Z,3.10
2023-01-11T15:02:02.716Z,2.40
2023-01-11T15:04:38.120Z,2.97
2023-01-11T15:07:28.731Z,2.45
2023-01-11T15:09:57.789Z,2.42
2023-01-11T15:12:32.180Z,2.97
2023-01-11T15:15:20.820Z,2.85
2023-01-11T15:18:14.427Z,5.80
2023-01-11T15:20:56.694Z,2.20
2023-01-11T15:23:24.293Z,2.10
2023-01-11T15:26:01.018Z,2.05
2023-01-11T15:28:56.285Z,2.28
2023-01-11T15:31:34.469Z,2.08
2023-01-11T15:34:18.197Z,2.78
2023-01-11T15:36:58.381Z,2.33
2023-01-11T15:39:36.697Z,1.80
2023-01-11T15:42:36.746Z,3.13
2023-01-11T15:45:18.861Z,2.45
